sensor_id;sensor_type;location;lat;lon;timestamp;P1;durP1;ratioP1;P2;durP2;ratioP2
70388;SDS011;58659;49.050;8.530;2023-06-22T00:45:27;6.17;;;2.73;;
70388;SDS011;58659;49.050;8.530;2023-06-22T00:47:53;9.10;;;2.60;;
70388;SDS011;58659;49.050;8.530;2023-06-22T00:50:21;5.27;;;2.57;;
70388;SDS011;58659;49.050;8.530;2023-06-22T00:52:48;5.80;;;2.50;;
70388;SDS011;58659;49.050;8.530;2023-06-22T00:55:17;5.43;;;2.50;;
70388;SDS011;58659;49.050;8.530;2023-06-22T00:57:45;12.07;;;2.97;;
70388;SDS011;58659;49.050;8.530;2023-06-22T01:00:13;9.77;;;3.40;;
70388;SDS011;58659;49.050;8.530;2023-06-22T01:19:57;4.77;;;2.73;;
70388;SDS011;58659;49.050;8.530;2023-06-22T01:22:25;8.83;;;3.60;;
70388;SDS011;58659;49.050;8.530;2023-06-22T02:24:27;8.53;;;3.67;;
70388;SDS011;58659;49.050;8.530;2023-06-22T02:58:51;13.85;;;4.75;;
70388;SDS011;58659;49.050;8.530;2023-06-22T03:13:23;9.67;;;4.57;;
70388;SDS011;58659;49.050;8.530;2023-06-22T03:15:49;12.93;;;5.00;;
70388;SDS011;58659;49.050;8.530;2023-06-22T03:18:14;9.07;;;4.67;;
70388;SDS011;58659;49.050;8.530;2023-06-22T03:35:12;9.10;;;4.30;;
70388;SDS011;58659;49.050;8.530;2023-06-22T07:41:15;6.38;;;2.97;;
70388;SDS011;58659;49.050;8.530;2023-06-22T07:43:41;7.00;;;2.63;;
70388;SDS011;58659;49.050;8.530;2023-06-22T07:46:06;4.15;;;2.70;;
70388;SDS011;58659;49.050;8.530;2023-06-22T07:48:32;4.32;;;2.83;;
70388;SDS011;58659;49.050;8.530;2023-06-22T07:50:57;3.70;;;2.53;;
70388;SDS011;58659;49.050;8.530;2023-06-22T07:53:23;3.85;;;2.78;;
70388;SDS011;58659;49.050;8.530;2023-06-22T07:55:48;4.68;;;2.95;;
70388;SDS011;58659;49.050;8.530;2023-06-22T07:58:17;5.88;;;3.13;;
70388;SDS011;58659;49.050;8.530;2023-06-22T08:03:09;4.50;;;2.97;;
70388;SDS011;58659;49.050;8.530;2023-06-22T08:05:34;4.50;;;2.70;;
70388;SDS011;58659;49.050;8.530;2023-06-22T08:07:59;4.40;;;2.63;;
70388;SDS011;58659;49.050;8.530;2023-06-22T08:10:25;8.27;;;2.78;;
70388;SDS011;58659;49.050;8.530;2023-06-22T08:12:51;4.07;;;2.33;;
70388;SDS011;58659;49.050;8.530;2023-06-22T08:15:17;4.30;;;2.40;;
70388;SDS011;58659;49.050;8.530;2023-06-22T08:17:43;5.97;;;2.67;;
70388;SDS011;58659;49.050;8.530;2023-06-22T08:20:09;4.35;;;2.20;;
70388;SDS011;58659;49.050;8.530;2023-06-22T08:22:39;3.90;;;3.05;;
70388;SDS011;58659;49.050;8.530;2023-06-22T08:25:05;2.90;;;2.13;;
70388;SDS011;58659;49.050;8.530;2023-06-22T08:27:31;10.77;;;2.53;;
70388;SDS011;58659;49.050;8.530;2023-06-22T08:29:57;3.50;;;2.35;;
70388;SDS011;58659;49.050;8.530;2023-06-22T08:32:24;4.15;;;2.28;;
70388;SDS011;58659;49.050;8.530;2023-06-22T08:34:51;3.75;;;2.50;;
70388;SDS011;58659;49.050;8.530;2023-06-22T08:37:18;6.68;;;2.90;;
70388;SDS011;58659;49.050;8.530;2023-06-22T08:39:43;6.22;;;2.63;;
70388;SDS011;58659;49.050;8.530;2023-06-22T08:42:08;4.60;;;2.72;;
70388;SDS011;58659;49.050;8.530;2023-06-22T08:44:34;5.68;;;2.60;;
70388;SDS011;58659;49.050;8.530;2023-06-22T08:46:59;3.88;;;2.30;;
70388;SDS011;58659;49.050;8.530;2023-06-22T08:49:24;4.80;;;2.53;;
70388;SDS011;58659;49.050;8.530;2023-06-22T08:51:50;6.35;;;2.53;;
70388;SDS011;58659;49.050;8.530;2023-06-22T08:54:19;3.28;;;2.58;;
70388;SDS011;58659;49.050;8.530;2023-06-22T08:56:45;3.38;;;2.30;;
70388;SDS011;58659;49.050;8.530;2023-06-22T08:59:13;5.43;;;2.63;;
70388;SDS011;58659;49.050;8.530;2023-06-22T09:01:39;11.90;;;2.60;;
70388;SDS011;58659;49.050;8.530;2023-06-22T09:04:05;5.70;;;2.13;;
70388;SDS011;58659;49.050;8.530;2023-06-22T09:06:32;8.40;;;3.22;;
70388;SDS011;58659;49.050;8.530;2023-06-22T09:09:02;6.25;;;2.67;;
70388;SDS011;58659;49.050;8.530;2023-06-22T09:11:29;3.97;;;2.75;;
70388;SDS011;58659;49.050;8.530;2023-06-22T09:13:54;7.65;;;3.00;;
70388;SDS011;58659;49.050;8.530;2023-06-22T09:16:20;4.57;;;2.58;;
70388;SDS011;58659;49.050;8.530;2023-06-22T09:18:48;5.75;;;2.83;;
70388;SDS011;58659;49.050;8.530;2023-06-22T09:21:14;3.70;;;2.38;;
70388;SDS011;58659;49.050;8.530;2023-06-22T09:23:41;6.32;;;2.60;;
70388;SDS011;58659;49.050;8.530;2023-06-22T09:26:09;4.93;;;2.88;;
70388;SDS011;58659;49.050;8.530;2023-06-22T09:28:56;5.57;;;2.42;;
70388;SDS011;58659;49.050;8.530;2023-06-22T09:31:21;3.88;;;2.50;;
70388;SDS011;58659;49.050;8.530;2023-06-22T09:33:53;4.40;;;2.85;;
70388;SDS011;58659;49.050;8.530;2023-06-22T09:36:20;5.57;;;3.13;;
70388;SDS011;58659;49.050;8.530;2023-06-22T09:38:51;5.43;;;2.55;;
70388;SDS011;58659;49.050;8.530;2023-06-22T09:41:25;4.03;;;2.63;;
70388;SDS011;58659;49.050;8.530;2023-06-22T09:43:53;4.10;;;2.35;;
70388;SDS011;58659;49.050;8.530;2023-06-22T09:46:19;5.45;;;3.08;;
70388;SDS011;58659;49.050;8.530;2023-06-22T09:48:46;7.85;;;3.30;;
70388;SDS011;58659;49.050;8.530;2023-06-22T09:51:13;4.88;;;3.45;;
70388;SDS011;58659;49.050;8.530;2023-06-22T09:53:38;5.63;;;2.58;;
70388;SDS011;58659;49.050;8.530;2023-06-22T09:56:04;4.97;;;3.03;;
70388;SDS011;58659;49.050;8.530;2023-06-22T09:58:31;6.18;;;3.40;;
70388;SDS011;58659;49.050;8.530;2023-06-22T10:00:58;6.68;;;2.63;;
70388;SDS011;58659;49.050;8.530;2023-06-22T10:03:42;8.25;;;2.90;;
70388;SDS011;58659;49.050;8.530;2023-06-22T10:06:08;3.28;;;2.60;;
70388;SDS011;58659;49.050;8.530;2023-06-22T10:08:34;5.97;;;3.03;;
70388;SDS011;58659;49.050;8.530;2023-06-22T10:11:00;5.35;;;2.50;;
70388;SDS011;58659;49.050;8.530;2023-06-22T10:13:26;4.80;;;2.67;;
70388;SDS011;58659;49.050;8.530;2023-06-22T10:15:51;8.10;;;2.42;;
70388;SDS011;58659;49.050;8.530;2023-06-22T10:18:17;4.20;;;2.50;;
70388;SDS011;58659;49.050;8.530;2023-06-22T10:20:43;8.98;;;3.08;;
70388;SDS011;58659;49.050;8.530;2023-06-22T10:23:09;5.45;;;2.70;;
70388;SDS011;58659;49.050;8.530;2023-06-22T10:25:34;6.20;;;2.78;;
70388;SDS011;58659;49.050;8.530;2023-06-22T10:40:08;6.40;;;2.72;;
70388;SDS011;58659;49.050;8.530;2023-06-22T10:42:34;4.68;;;2.90;;
70388;SDS011;58659;49.050;8.530;2023-06-22T10:45:00;4.80;;;2.95;;
70388;SDS011;58659;49.050;8.530;2023-06-22T10:47:26;4.88;;;3.28;;
70388;SDS011;58659;49.050;8.530;2023-06-22T10:49:51;6.20;;;2.80;;
70388;SDS011;58659;49.050;8.530;2023-06-22T10:52:31;4.68;;;2.83;;
70388;SDS011;58659;49.050;8.530;2023-06-22T10:54:56;7.32;;;2.70;;
70388;SDS011;58659;49.050;8.530;2023-06-22T10:57:22;5.43;;;2.75;;
70388;SDS011;58659;49.050;8.530;2023-06-22T10:59:47;5.60;;;3.00;;
70388;SDS011;58659;49.050;8.530;2023-06-22T11:04:38;6.18;;;2.83;;
70388;SDS011;58659;49.050;8.530;2023-06-22T11:09:29;8.02;;;2.60;;
70388;SDS011;58659;49.050;8.530;2023-06-22T11:11:55;6.82;;;2.88;;
70388;SDS011;58659;49.050;8.530;2023-06-22T11:14:26;4.05;;;2.80;;
70388;SDS011;58659;49.050;8.530;2023-06-22T11:16:51;5.63;;;2.80;;
70388;SDS011;58659;49.050;8.530;2023-06-22T11:19:17;3.40;;;2.70;;
70388;SDS011;58659;49.050;8.530;2023-06-22T11:21:44;7.05;;;2.60;;
70388;SDS011;58659;49.050;8.530;2023-06-22T12:19:59;3.42;;;2.60;;
70388;SDS011;58659;49.050;8.530;2023-06-22T12:22:25;4.82;;;3.17;;
70388;SDS011;58659;49.050;8.530;2023-06-22T12:24:50;6.47;;;3.38;;
70388;SDS011;58659;49.050;8.530;2023-06-22T12:27:16;4.55;;;3.15;;
70388;SDS011;58659;49.050;8.530;2023-06-22T12:29:43;6.28;;;3.20;;
70388;SDS011;58659;49.050;8.530;2023-06-22T12:32:10;4.55;;;2.90;;
70388;SDS011;58659;49.050;8.530;2023-06-22T12:34:37;6.15;;;3.15;;
70388;SDS011;58659;49.050;8.530;2023-06-22T12:37:03;6.93;;;3.17;;
70388;SDS011;58659;49.050;8.530;2023-06-22T12:39:30;10.43;;;3.50;;
70388;SDS011;58659;49.050;8.530;2023-06-22T12:41:56;6.05;;;2.80;;
70388;SDS011;58659;49.050;8.530;2023-06-22T12:44:24;4.57;;;2.78;;
70388;SDS011;58659;49.050;8.530;2023-06-22T12:46:49;6.07;;;3.15;;
70388;SDS011;58659;49.050;8.530;2023-06-22T12:49:15;5.82;;;3.15;;
70388;SDS011;58659;49.050;8.530;2023-06-22T12:51:40;8.73;;;3.00;;
70388;SDS011;58659;49.050;8.530;2023-06-22T12:54:07;5.13;;;2.97;;
70388;SDS011;58659;49.050;8.530;2023-06-22T12:56:32;4.60;;;2.93;;
70388;SDS011;58659;49.050;8.530;2023-06-22T12:58:58;7.45;;;3.20;;
70388;SDS011;58659;49.050;8.530;2023-06-22T13:01:26;6.03;;;3.28;;
70388;SDS011;58659;49.050;8.530;2023-06-22T13:03:52;5.40;;;3.70;;
70388;SDS011;58659;49.050;8.530;2023-06-22T13:06:17;5.30;;;2.90;;
70388;SDS011;58659;49.050;8.530;2023-06-22T13:08:42;4.07;;;2.97;;
70388;SDS011;58659;49.050;8.530;2023-06-22T13:11:08;8.77;;;3.15;;
70388;SDS011;58659;49.050;8.530;2023-06-22T13:13:33;5.35;;;3.25;;
70388;SDS011;58659;49.050;8.530;2023-06-22T13:15:59;9.32;;;3.30;;
70388;SDS011;58659;49.050;8.530;2023-06-22T13:18:24;9.23;;;3.20;;
70388;SDS011;58659;49.050;8.530;2023-06-22T13:20:49;8.68;;;3.35;;
70388;SDS011;58659;49.050;8.530;2023-06-22T13:23:15;4.32;;;2.75;;
70388;SDS011;58659;49.050;8.530;2023-06-22T13:25:40;8.98;;;3.20;;
70388;SDS011;58659;49.050;8.530;2023-06-22T13:28:05;6.82;;;3.08;;
70388;SDS011;58659;49.050;8.530;2023-06-22T13:30:31;6.30;;;3.50;;
70388;SDS011;58659;49.050;8.530;2023-06-22T13:32:57;8.05;;;3.72;;
70388;SDS011;58659;49.050;8.530;2023-06-22T13:35:22;5.28;;;2.95;;
70388;SDS011;58659;49.050;8.530;2023-06-22T13:37:47;4.53;;;3.05;;
70388;SDS011;58659;49.050;8.530;2023-06-22T13:40:14;12.20;;;4.07;;
70388;SDS011;58659;49.050;8.530;2023-06-22T13:42:39;6.20;;;3.10;;
70388;SDS011;58659;49.050;8.530;2023-06-22T13:45:05;4.75;;;3.00;;
70388;SDS011;58659;49.050;8.530;2023-06-22T13:47:31;5.78;;;2.78;;
70388;SDS011;58659;49.050;8.530;2023-06-22T13:49:57;5.30;;;3.70;;
70388;SDS011;58659;49.050;8.530;2023-06-22T13:52:22;6.05;;;3.33;;
70388;SDS011;58659;49.050;8.530;2023-06-22T13:54:48;7.75;;;3.55;;
70388;SDS011;58659;49.050;8.530;2023-06-22T13:57:13;10.32;;;3.55;;
70388;SDS011;58659;49.050;8.530;2023-06-22T13:59:39;5.78;;;3.20;;
70388;SDS011;58659;49.050;8.530;2023-06-22T14:02:04;5.78;;;3.30;;
70388;SDS011;58659;49.050;8.530;2023-06-22T14:04:29;5.07;;;3.25;;
70388;SDS011;58659;49.050;8.530;2023-06-22T14:06:55;7.57;;;2.97;;
70388;SDS011;58659;49.050;8.530;2023-06-22T14:09:21;7.40;;;3.40;;
70388;SDS011;58659;49.050;8.530;2023-06-22T14:11:46;7.30;;;3.00;;
70388;SDS011;58659;49.050;8.530;2023-06-22T14:14:11;6.43;;;3.13;;
70388;SDS011;58659;49.050;8.530;2023-06-22T14:16:37;6.80;;;3.20;;
70388;SDS011;58659;49.050;8.530;2023-06-22T14:19:02;6.55;;;3.55;;
70388;SDS011;58659;49.050;8.530;2023-06-22T14:21:27;7.93;;;3.20;;
70388;SDS011;58659;49.050;8.530;2023-06-22T14:23:53;12.60;;;3.08;;
70388;SDS011;58659;49.050;8.530;2023-06-22T14:26:18;8.90;;;3.35;;
70388;SDS011;58659;49.050;8.530;2023-06-22T14:28:47;6.22;;;3.40;;
70388;SDS011;58659;49.050;8.530;2023-06-22T14:31:15;6.65;;;2.97;;
70388;SDS011;58659;49.050;8.530;2023-06-22T14:33:45;5.18;;;3.35;;
70388;SDS011;58659;49.050;8.530;2023-06-22T14:36:12;9.00;;;3.63;;
70388;SDS011;58659;49.050;8.530;2023-06-22T14:38:38;4.72;;;2.92;;
70388;SDS011;58659;49.050;8.530;2023-06-22T14:41:04;5.68;;;3.05;;
70388;SDS011;58659;49.050;8.530;2023-06-22T14:43:29;7.25;;;3.45;;
70388;SDS011;58659;49.050;8.530;2023-06-22T14:45:55;4.63;;;3.08;;
70388;SDS011;58659;49.050;8.530;2023-06-22T14:48:20;5.15;;;2.85;;
70388;SDS011;58659;49.050;8.530;2023-06-22T14:50:45;6.05;;;2.97;;
70388;SDS011;58659;49.050;8.530;2023-06-22T14:53:11;6.82;;;3.20;;
70388;SDS011;58659;49.050;8.530;2023-06-22T14:55:36;4.90;;;3.00;;
70388;SDS011;58659;49.050;8.530;2023-06-22T14:58:01;6.22;;;3.13;;
70388;SDS011;58659;49.050;8.530;2023-06-22T15:00:26;5.40;;;2.90;;
70388;SDS011;58659;49.050;8.530;2023-06-22T15:02:52;7.55;;;3.50;;
70388;SDS011;58659;49.050;8.530;2023-06-22T15:05:17;5.40;;;3.00;;
70388;SDS011;58659;49.050;8.530;2023-06-22T15:07:42;4.65;;;2.45;;
70388;SDS011;58659;49.050;8.530;2023-06-22T15:10:08;6.05;;;3.25;;
70388;SDS011;58659;49.050;8.530;2023-06-22T15:12:34;4.95;;;3.00;;
70388;SDS011;58659;49.050;8.530;2023-06-22T15:14:59;5.05;;;3.13;;
70388;SDS011;58659;49.050;8.530;2023-06-22T15:17:25;8.05;;;3.22;;
70388;SDS011;58659;49.050;8.530;2023-06-22T15:19:54;5.72;;;3.13;;
70388;SDS011;58659;49.050;8.530;2023-06-22T15:22:20;9.07;;;3.22;;
70388;SDS011;58659;49.050;8.530;2023-06-22T15:24:45;6.63;;;2.88;;
70388;SDS011;58659;49.050;8.530;2023-06-22T15:27:13;7.28;;;3.38;;
70388;SDS011;58659;49.050;8.530;2023-06-22T15:29:39;6.85;;;3.10;;
70388;SDS011;58659;49.050;8.530;2023-06-22T15:32:04;6.75;;;2.75;;
70388;SDS011;58659;49.050;8.530;2023-06-22T15:34:31;5.00;;;3.00;;
70388;SDS011;58659;49.050;8.530;2023-06-22T15:36:56;9.65;;;3.13;;
70388;SDS011;58659;49.050;8.530;2023-06-22T15:39:21;4.78;;;3.25;;
70388;SDS011;58659;49.050;8.530;2023-06-22T15:41:48;7.78;;;3.30;;
70388;SDS011;58659;49.050;8.530;2023-06-22T15:44:13;9.00;;;3.25;;
70388;SDS011;58659;49.050;8.530;2023-06-22T15:46:39;7.72;;;3.47;;
70388;SDS011;58659;49.050;8.530;2023-06-22T16:01:13;8.23;;;3.35;;
70388;SDS011;58659;49.050;8.530;2023-06-22T16:03:39;7.97;;;3.45;;
70388;SDS011;58659;49.050;8.530;2023-06-22T16:06:06;4.88;;;2.88;;
70388;SDS011;58659;49.050;8.530;2023-06-22T16:08:32;5.90;;;3.95;;
70388;SDS011;58659;49.050;8.530;2023-06-22T16:10:59;8.88;;;3.20;;
70388;SDS011;58659;49.050;8.530;2023-06-22T16:13:24;7.47;;;3.50;;
70388;SDS011;58659;49.050;8.530;2023-06-22T16:15:50;12.70;;;3.60;;
70388;SDS011;58659;49.050;8.530;2023-06-22T16:18:15;7.20;;;3.20;;
70388;SDS011;58659;49.050;8.530;2023-06-22T16:20:41;9.40;;;3.17;;
70388;SDS011;58659;49.050;8.530;2023-06-22T16:23:06;9.70;;;3.20;;
70388;SDS011;58659;49.050;8.530;2023-06-22T16:25:32;6.10;;;3.03;;
70388;SDS011;58659;49.050;8.530;2023-06-22T16:27:57;5.38;;;3.45;;
70388;SDS011;58659;49.050;8.530;2023-06-22T16:30:22;5.20;;;2.85;;
70388;SDS011;58659;49.050;8.530;2023-06-22T16:35:16;7.43;;;3.33;;
70388;SDS011;58659;49.050;8.530;2023-06-22T16:37:42;8.85;;;3.58;;
70388;SDS011;58659;49.050;8.530;2023-06-22T16:40:07;7.85;;;2.85;;
70388;SDS011;58659;49.050;8.530;2023-06-22T16:42:35;8.25;;;3.35;;
70388;SDS011;58659;49.050;8.530;2023-06-22T16:45:00;9.85;;;3.17;;
70388;SDS011;58659;49.050;8.530;2023-06-22T16:47:26;7.20;;;3.30;;
70388;SDS011;58659;49.050;8.530;2023-06-22T16:49:52;5.57;;;3.60;;
70388;SDS011;58659;49.050;8.530;2023-06-22T16:52:18;10.23;;;3.25;;
70388;SDS011;58659;49.050;8.530;2023-06-22T16:54:43;7.32;;;3.42;;
70388;SDS011;58659;49.050;8.530;2023-06-22T16:57:11;5.80;;;2.90;;
70388;SDS011;58659;49.050;8.530;2023-06-22T16:59:39;5.07;;;2.80;;
70388;SDS011;58659;49.050;8.530;2023-06-22T17:02:04;4.80;;;2.88;;
70388;SDS011;58659;49.050;8.530;2023-06-22T17:04:35;8.02;;;2.88;;
70388;SDS011;58659;49.050;8.530;2023-06-22T17:07:07;6.32;;;3.00;;
70388;SDS011;58659;49.050;8.530;2023-06-22T17:09:37;7.88;;;2.97;;
70388;SDS011;58659;49.050;8.530;2023-06-22T17:12:03;5.28;;;2.78;;
70388;SDS011;58659;49.050;8.530;2023-06-22T17:14:29;4.22;;;2.30;;
70388;SDS011;58659;49.050;8.530;2023-06-22T17:16:54;7.72;;;2.97;;
70388;SDS011;58659;49.050;8.530;2023-06-22T17:19:20;8.45;;;2.97;;
70388;SDS011;58659;49.050;8.530;2023-06-22T17:21:46;6.15;;;2.75;;
70388;SDS011;58659;49.050;8.530;2023-06-22T17:24:12;8.18;;;2.58;;
70388;SDS011;58659;49.050;8.530;2023-06-22T17:26:40;6.35;;;2.42;;
70388;SDS011;58659;49.050;8.530;2023-06-22T17:29:07;7.18;;;2.33;;
70388;SDS011;58659;49.050;8.530;2023-06-22T17:34:25;3.95;;;1.92;;
70388;SDS011;58659;49.050;8.530;2023-06-22T17:36:54;6.30;;;2.20;;
70388;SDS011;58659;49.050;8.530;2023-06-22T17:41:54;5.10;;;2.00;;
70388;SDS011;58659;49.050;8.530;2023-06-22T17:46:55;2.83;;;1.58;;
70388;SDS011;58659;49.050;8.530;2023-06-22T17:49:25;3.10;;;1.90;;
70388;SDS011;58659;49.050;8.530;2023-06-22T17:51:51;7.20;;;1.83;;
70388;SDS011;58659;49.050;8.530;2023-06-22T17:54:17;3.47;;;2.13;;
70388;SDS011;58659;49.050;8.530;2023-06-22T17:56:47;4.35;;;1.80;;
70388;SDS011;58659;49.050;8.530;2023-06-22T17:59:19;3.90;;;2.08;;
70388;SDS011;58659;49.050;8.530;2023-06-22T18:01:45;3.83;;;1.77;;
70388;SDS011;58659;49.050;8.530;2023-06-22T18:04:13;6.05;;;1.98;;
70388;SDS011;58659;49.050;8.530;2023-06-22T18:06:43;4.32;;;1.70;;
70388;SDS011;58659;49.050;8.530;2023-06-22T18:09:12;3.30;;;1.45;;
70388;SDS011;58659;49.050;8.530;2023-06-22T18:11:43;2.38;;;1.52;;
70388;SDS011;58659;49.050;8.530;2023-06-22T18:14:10;4.78;;;1.73;;
70388;SDS011;58659;49.050;8.530;2023-06-22T18:16:38;5.43;;;2.28;;
70388;SDS011;58659;49.050;8.530;2023-06-22T18:19:05;3.67;;;2.03;;
70388;SDS011;58659;49.050;8.530;2023-06-22T18:21:31;4.57;;;1.30;;
70388;SDS011;58659;49.050;8.530;2023-06-22T18:23:57;5.13;;;1.55;;
70388;SDS011;58659;49.050;8.530;2023-06-22T18:26:23;2.28;;;1.67;;
70388;SDS011;58659;49.050;8.530;2023-06-22T18:28:54;3.40;;;1.70;;
70388;SDS011;58659;49.050;8.530;2023-06-22T18:31:20;3.72;;;2.05;;
70388;SDS011;58659;49.050;8.530;2023-06-22T18:33:50;5.50;;;1.73;;
70388;SDS011;58659;49.050;8.530;2023-06-22T18:36:28;2.10;;;1.60;;
70388;SDS011;58659;49.050;8.530;2023-06-22T18:38:56;6.35;;;2.00;;
70388;SDS011;58659;49.050;8.530;2023-06-22T18:41:37;8.18;;;1.73;;
70388;SDS011;58659;49.050;8.530;2023-06-22T18:46:57;2.45;;;1.40;;
70388;SDS011;58659;49.050;8.530;2023-06-22T18:49:25;2.78;;;1.67;;
70388;SDS011;58659;49.050;8.530;2023-06-22T18:51:56;4.22;;;1.80;;
70388;SDS011;58659;49.050;8.530;2023-06-22T18:54:40;2.05;;;1.50;;
70388;SDS011;58659;49.050;8.530;2023-06-22T18:57:12;2.72;;;1.45;;
70388;SDS011;58659;49.050;8.530;2023-06-22T18:59:50;2.10;;;1.50;;
70388;SDS011;58659;49.050;8.530;2023-06-22T19:12:56;4.03;;;1.73;;
70388;SDS011;58659;49.050;8.530;2023-06-22T19:15:43;4.68;;;2.30;;
70388;SDS011;58659;49.050;8.530;2023-06-22T19:18:15;5.20;;;2.10;;
70388;SDS011;58659;49.050;8.530;2023-06-22T19:23:28;3.88;;;1.70;;
70388;SDS011;58659;49.050;8.530;2023-06-22T19:25:55;4.15;;;1.70;;
70388;SDS011;58659;49.050;8.530;2023-06-22T19:28:26;11.32;;;2.45;;
70388;SDS011;58659;49.050;8.530;2023-06-22T19:30:58;5.75;;;2.28;;
70388;SDS011;58659;49.050;8.530;2023-06-22T19:33:25;9.80;;;2.53;;
70388;SDS011;58659;49.050;8.530;2023-06-22T19:35:53;2.60;;;1.80;;
70388;SDS011;58659;49.050;8.530;2023-06-22T19:40:47;5.10;;;1.75;;
70388;SDS011;58659;49.050;8.530;2023-06-22T19:43:13;1.95;;;1.50;;
70388;SDS011;58659;49.050;8.530;2023-06-22T19:45:40;2.90;;;2.00;;
70388;SDS011;58659;49.050;8.530;2023-06-22T20:24:56;5.17;;;1.40;;
70388;SDS011;58659;49.050;8.530;2023-06-22T20:27:22;2.10;;;0.90;;
70388;SDS011;58659;49.050;8.530;2023-06-22T20:29:50;1.43;;;0.90;;
